AirNav   Pilot Hours Calculator
 
 426 users online  

WN40 Coupeville Airpark
Coupeville, Washington, USA

GOING TO COUPEVILLE?


FAA INFORMATION EFFECTIVE 18 JULY 2019

Location

FAA Identifier: WN40
Lat/Long: 48-11-25.3510N / 122-38-34.5970W
48-11.422517N / 122-38.576617W
48.1903753 / -122.6429436
(estimated)
Elevation: 200 ft. / 61 m (estimated)
Variation: 21E (1985)
From city: 3 miles S of COUPEVILLE, WA
Time zone: UTC -7 (UTC -8 during Standard Time)
Zip code: 98239

Airport Operations

Airport use: Private use. Permission required prior to landing
Activation date: 11/1983
Control tower: no
ARTCC: SEATTLE CENTER
FSS: SEATTLE FLIGHT SERVICE STATION
Attendance: UNATNDD
Wind indicator: yes
Segmented circle: no

Airport Communications

WX AWOS-3 at OKH (4 nm N): 132.775 (360-675-8431)
WX AWOS-3P at 0S9 (11 nm SW): 119.025 (360-379-1199)
WX AWOS-3 at BVS (19 nm NE): 121.125 (360-757-7767)
WX AWOS-3PT at AWO (19 nm E): 135.625 (360-435-8045)

Nearby radio navigation aids

VOR radial/distance  VOR name  Freq  Var
CVVr116/4.6PENN COVE VOR/DME117.2019E
PAEr298/21.9PAINE VOR/DME110.6020E

 
NDB name  Hdg/Dist  Freq  Var  ID
SKAGIT/BAY VIEW192/18.924016EBVS -... ...- ...
FRIDAY HARBOR125/24.628417EFHR ..-. .... .-.
EDIZ HOOK067/30.633817ENOW -. --- .--

Airport Services

Runway Information

Runway 6/24

Dimensions: 2500 x 80 ft. / 762 x 24 m
Surface: turf
RUNWAY 6  RUNWAY 24
Traffic pattern: leftleft
Obstructions: 100 ft. trees, 400 ft. from runwaynone

Airport Ownership and Management from official FAA records

Ownership: Privately-owned
Owner: ERNEST H. YOUDERIAN
585W-500SO
COUPEVILLE, WA 98239
Phone 206-678-4147
Manager: ERNEST H. YOUDERIAN
585W-500SO
COUPEVILLE, WA 98239
Phone 206-678-4147

Airport Operational Statistics

Aircraft based on the field: 7
Single engine airplanes: 7
    

Additional Remarks

CTC WHIDBEY NAS ON 127.9 OR APCH CTL 118.2 OR ATIS ON 134.15. FOR ARPT TFC AREA HOT OR COLD JET TFC ON DLNG & TKOF.
AIRPARK APPROVED FOR PERSONAL USE ONLY.
FOR CD CTC SEATTLE ARTCC AT 253-351-3694.

Instrument Procedures

There are no published instrument procedures at WN40.

Some nearby airports with instrument procedures:

KOKH - AJ Eisenberg Airport (4 nm N)
KNUW - Whidbey Island Naval Air Station (Ault Field) (10 nm N)
0S9 - Jefferson County International Airport (11 nm SW)
KBVS - Skagit Regional Airport (19 nm NE)
KAWO - Arlington Municipal Airport (19 nm E)
 
Loc | Ops | Rwys | IFR | FBO | Links
Com | Nav | Svcs | Stats | Notes
Area around WN40 (Coupeville Airpark)
 
Road maps at: MapQuest Bing Google
 
Aerial photo
No photo
 
Sectional chart

 
Airport distance calculator
Flying to Coupeville Airpark? Find the distance to fly.

From to WN40

Sunrise and sunset
Times for 17-Jul-2019
 Local
(UTC-7)
 Zulu
(UTC)
Morning civil twilight04:5011:50
Sunrise05:2912:29
Sunset21:0404:04
Evening civil twilight21:4304:43

Current date and time
Zulu (UTC)  17-Jul-2019 09:31:09
Local (UTC-7)  17-Jul-2019 02:31:09
 
METAR
KNUW 
10nm N 
170856Z 19004KT 10SM SCT030 BKN040 OVC100 18/12 A2994 RMK AO2 SLP137 T01780122 58008 $
K0S9 
11nm SW 
170915Z AUTO 09004KT 10SM OVC029 17/13 A2989 RMK AO2
74S 
19nm N 
SuperAWOS
170834Z AUTO 17008KT 10SM 14/12 A2991
KBVS 
19nm NE 
170915Z AUTO 17006KT 10SM BKN040 OVC047 16/13 A2990 RMK A01
KAWO 
19nm E 
170856Z AUTO 15003KT 10SM OVC036 17/13 A2992 RMK AO2 SLP136 T01670133 58005
TAF
KNUW 
10nm N 
1623/1723 27007KT 9999 FEW035 SCT065 SCT100 BKN250 QNH2995INS FM170500 24010G16KT 9999 VCSH BKN033 BKN060 OVC100 QNH2995INS FM170800 22009KT 6000 -RA BR BKN015 BKN033 OVC060 530109 641107 QNH2988INS TEMPO 1709/1715 15013G20KT 1600 RA BR BKN003 OVC015 FM171700 15018G32KT 9999 -RA BKN020 BKN045 OVC080 530009 641107 QNH2984INS T20/1623Z T12/1711Z COR 0125 FS30046
NOTAMs
Click for the latest NOTAMs
NOTAMs are issued by the DoD/FAA and will open in a separate window not controlled by AirNav.

 

 
 

Would you like to see your business listed on this page?

 If your business provides an interesting product or service to pilots, flight crews, aircraft, or users of the Coupeville Airpark, you should consider listing it here.  To start the listing process, click on the button below
 
Add a business
 

Other Pages about Coupeville Airpark

Update a link
 
Copyright © AirNav, LLC. All rights reserved. Privacy Policy  Contact